createdAt,value
2023-01-26T00:00:55.095Z,10.07
2023-01-26T00:03:22.632Z,9.85
2023-01-26T00:05:49.919Z,9.30
2023-01-26T00:08:17.100Z,10.05
2023-01-26T00:10:50.347Z,9.98
2023-01-26T00:13:21.978Z,9.75
2023-01-26T00:15:49.568Z,9.23
2023-01-26T00:18:16.721Z,10.43
2023-01-26T00:20:43.874Z,10.27
2023-01-26T00:23:10.983Z,10.32
2023-01-26T00:25:40.239Z,9.85
2023-01-26T00:28:07.363Z,9.52
2023-01-26T00:30:34.467Z,10.38
2023-01-26T00:33:01.666Z,10.27
2023-01-26T00:35:28.801Z,10.30
2023-01-26T00:37:55.961Z,9.82
2023-01-26T00:40:23.132Z,10.93
2023-01-26T00:42:50.318Z,9.27
2023-01-26T00:45:17.566Z,10.60
2023-01-26T00:47:44.857Z,10.88
2023-01-26T00:50:12.544Z,9.60
2023-01-26T00:52:39.864Z,9.52
2023-01-26T00:55:07.184Z,10.73
2023-01-26T00:57:34.379Z,9.15
2023-01-26T01:00:01.545Z,9.10
2023-01-26T01:02:28.780Z,11.05
2023-01-26T01:04:56.015Z,9.05
2023-01-26T01:07:23.173Z,10.23
2023-01-26T01:09:50.286Z,9.40
2023-01-26T01:12:17.407Z,11.05
2023-01-26T01:14:44.553Z,9.60
2023-01-26T01:17:12.237Z,10.23
2023-01-26T01:19:39.893Z,10.60
2023-01-26T01:22:07.083Z,11.40
2023-01-26T01:24:35.318Z,10.10
2023-01-26T01:27:02.456Z,10.90
2023-01-26T01:29:29.616Z,9.85
2023-01-26T01:31:56.819Z,9.90
2023-01-26T01:34:24.223Z,10.00
2023-01-26T01:36:52.166Z,9.32
2023-01-26T01:39:19.295Z,9.68
2023-01-26T01:41:46.763Z,9.27
2023-01-26T01:44:13.910Z,10.02
2023-01-26T01:46:44.209Z,9.75
2023-01-26T01:49:19.888Z,9.38
2023-01-26T01:51:51.101Z,9.82
2023-01-26T01:54:21.594Z,8.95
2023-01-26T01:56:50.664Z,8.88
2023-01-26T01:59:20.673Z,10.38
2023-01-26T02:01:49.043Z,9.18
2023-01-26T02:04:16.251Z,9.85
2023-01-26T02:06:47.972Z,9.43
2023-01-26T02:09:36.244Z,8.88
2023-01-26T02:12:05.762Z,9.52
2023-01-26T02:14:33.665Z,8.70
2023-01-26T02:17:00.785Z,9.48
2023-01-26T02:19:44.139Z,10.20
2023-01-26T02:22:22.692Z,9.48
2023-01-26T02:24:50.251Z,10.20
2023-01-26T02:27:17.426Z,10.93
2023-01-26T02:29:44.588Z,9.60
2023-01-26T02:32:11.719Z,9.93
2023-01-26T02:34:38.866Z,10.85
2023-01-26T02:37:06.033Z,9.07
2023-01-26T02:39:45.075Z,8.98
2023-01-26T02:42:31.028Z,10.07
2023-01-26T02:44:58.258Z,10.43
2023-01-26T02:47:25.364Z,8.80
2023-01-26T02:49:52.543Z,9.15
2023-01-26T02:52:21.208Z,8.93
2023-01-26T02:55:06.950Z,8.10
2023-01-26T02:57:35.233Z,10.63
2023-01-26T03:00:02.925Z,8.98
2023-01-26T03:02:30.031Z,9.73
2023-01-26T03:04:57.238Z,10.30
2023-01-26T03:07:24.635Z,8.77
2023-01-26T03:09:51.818Z,8.95
2023-01-26T03:12:18.940Z,9.07
2023-01-26T03:14:46.068Z,9.57
2023-01-26T03:17:13.225Z,10.43
2023-01-26T03:19:59.104Z,8.68
2023-01-26T03:22:45.052Z,9.52
2023-01-26T03:25:30.971Z,8.80
2023-01-26T03:27:58.109Z,8.80
2023-01-26T03:30:25.257Z,8.98
2023-01-26T03:32:52.410Z,8.77
2023-01-26T03:35:22.964Z,8.77
2023-01-26T03:37:54.870Z,8.98
2023-01-26T03:40:41.021Z,8.98
2023-01-26T03:43:29.660Z,9.02
2023-01-26T03:46:15.678Z,8.57
2023-01-26T03:49:01.568Z,9.32
2023-01-26T03:51:47.617Z,8.80
2023-01-26T03:54:33.558Z,8.48
2023-01-26T03:57:00.692Z,8.15
2023-01-26T03:59:40.053Z,9.27
2023-01-26T04:02:31.287Z,9.35
2023-01-26T04:05:17.472Z,8.57
2023-01-26T04:08:03.369Z,8.10
2023-01-26T04:10:30.490Z,8.45
2023-01-26T04:13:16.103Z,9.02
2023-01-26T04:16:02.887Z,9.50
2023-01-26T04:18:48.997Z,9.45
2023-01-26T04:21:33.946Z,8.23
2023-01-26T04:24:01.641Z,8.40
2023-01-26T04:26:36.871Z,9.45
2023-01-26T04:29:13.943Z,8.05
2023-01-26T04:31:41.937Z,8.68
2023-01-26T04:34:13.273Z,9.18
2023-01-26T04:36:40.580Z,9.70
2023-01-26T04:39:08.145Z,9.20
2023-01-26T04:41:35.418Z,9.23
2023-01-26T04:44:02.935Z,8.82
2023-01-26T04:46:30.168Z,8.35
2023-01-26T04:48:57.313Z,8.90
2023-01-26T04:51:24.469Z,8.43
2023-01-26T04:53:51.694Z,8.20
2023-01-26T04:56:24.258Z,8.88
2023-01-26T04:58:51.922Z,8.15
2023-01-26T05:01:19.149Z,9.23
2023-01-26T05:03:46.273Z,8.07
2023-01-26T05:06:13.425Z,8.07
2023-01-26T05:08:40.567Z,8.90
2023-01-26T05:11:07.726Z,8.35
2023-01-26T05:13:36.016Z,8.73
2023-01-26T05:16:04.096Z,8.63
2023-01-26T05:18:31.307Z,8.85
2023-01-26T05:20:58.701Z,9.02
2023-01-26T05:23:25.901Z,9.02
2023-01-26T05:25:53.055Z,8.40
2023-01-26T05:28:20.200Z,9.13
2023-01-26T05:30:48.111Z,9.07
2023-01-26T05:33:15.993Z,8.50
2023-01-26T05:35:43.522Z,8.18
2023-01-26T05:38:10.725Z,8.50
2023-01-26T05:40:37.821Z,7.72
2023-01-26T05:43:05.056Z,8.05
2023-01-26T05:45:32.212Z,8.82
2023-01-26T05:47:59.351Z,8.90
2023-01-26T05:50:26.559Z,8.45
2023-01-26T05:52:53.691Z,8.75
2023-01-26T05:55:20.938Z,8.90
2023-01-26T05:57:48.221Z,8.70
2023-01-26T06:00:15.764Z,10.15
2023-01-26T06:02:43.006Z,9.55
2023-01-26T06:05:10.360Z,9.80
2023-01-26T06:07:37.519Z,9.25
2023-01-26T06:10:05.241Z,9.27
2023-01-26T06:12:35.424Z,10.45
2023-01-26T06:15:03.385Z,8.68
2023-01-26T06:17:30.502Z,9.48
2023-01-26T06:19:58.489Z,9.75
2023-01-26T06:22:25.735Z,9.25
2023-01-26T06:24:52.857Z,9.75
2023-01-26T06:27:20.225Z,8.90
2023-01-26T06:29:48.301Z,9.35
2023-01-26T06:32:15.943Z,9.95
2023-01-26T06:34:43.064Z,9.30
2023-01-26T06:37:11.275Z,10.27
2023-01-26T06:39:38.486Z,10.10
2023-01-26T06:42:05.886Z,10.90
2023-01-26T06:44:33.115Z,9.55
2023-01-26T06:47:00.248Z,10.98
2023-01-26T06:49:27.373Z,10.38
2023-01-26T06:51:56.479Z,9.68
2023-01-26T06:54:23.893Z,9.32
2023-01-26T06:56:51.065Z,9.90
2023-01-26T06:59:18.448Z,9.32
2023-01-26T07:01:49.897Z,8.90
2023-01-26T07:04:17.241Z,9.73
2023-01-26T07:06:44.372Z,8.93
2023-01-26T07:09:11.736Z,9.40
2023-01-26T07:11:38.899Z,8.20
2023-01-26T07:14:06.244Z,8.20
2023-01-26T07:16:34.000Z,6.75
2023-01-26T07:19:01.423Z,6.93
2023-01-26T07:21:28.532Z,8.23
2023-01-26T07:23:56.316Z,9.80
2023-01-26T07:26:23.582Z,9.80
2023-01-26T07:28:50.766Z,9.15
2023-01-26T07:31:18.026Z,9.13
2023-01-26T07:33:45.302Z,9.18
2023-01-26T07:36:12.464Z,8.90
2023-01-26T07:38:39.626Z,9.00
2023-01-26T07:41:12.703Z,8.63
2023-01-26T07:43:41.171Z,8.52
2023-01-26T07:46:10.497Z,8.18
2023-01-26T07:48:37.708Z,8.15
2023-01-26T07:51:05.552Z,7.97
2023-01-26T07:53:37.564Z,7.90
2023-01-26T07:56:11.905Z,7.70
2023-01-26T07:58:39.350Z,7.32
2023-01-26T08:01:15.931Z,5.70
2023-01-26T08:03:45.438Z,6.05
2023-01-26T08:06:15.554Z,6.72
2023-01-26T08:08:43.515Z,5.78
2023-01-26T08:11:11.409Z,4.95
2023-01-26T08:13:38.761Z,5.78
2023-01-26T08:16:09.528Z,5.50
2023-01-26T08:18:36.753Z,4.97
2023-01-26T08:21:03.914Z,4.75
2023-01-26T08:23:31.467Z,4.38
2023-01-26T08:26:02.679Z,5.25
2023-01-26T08:28:29.912Z,5.88
2023-01-26T08:30:57.171Z,6.82
2023-01-26T08:33:24.679Z,7.50
2023-01-26T08:35:51.764Z,8.18
2023-01-26T08:38:18.966Z,7.60
2023-01-26T08:40:51.667Z,7.45
2023-01-26T08:43:18.812Z,8.52
2023-01-26T08:45:47.629Z,8.68
2023-01-26T08:48:14.931Z,8.02
2023-01-26T08:50:42.114Z,6.00
2023-01-26T08:53:09.300Z,6.32
2023-01-26T08:55:36.874Z,6.78
2023-01-26T08:58:03.997Z,6.47
2023-01-26T09:00:31.480Z,5.88
2023-01-26T09:03:00.292Z,5.82
2023-01-26T09:05:27.966Z,6.13
2023-01-26T09:07:55.205Z,6.90
2023-01-26T09:10:22.342Z,6.65
2023-01-26T09:12:49.517Z,6.93
2023-01-26T09:15:16.692Z,6.75
2023-01-26T09:17:43.965Z,9.40
2023-01-26T09:20:12.102Z,9.02
2023-01-26T09:22:39.629Z,9.75
2023-01-26T09:25:07.165Z,8.63
2023-01-26T09:27:34.287Z,9.18
2023-01-26T09:30:01.471Z,8.73
2023-01-26T09:32:28.775Z,8.52
2023-01-26T09:34:56.175Z,9.38
2023-01-26T09:37:23.415Z,8.95
2023-01-26T09:39:50.511Z,9.05
2023-01-26T09:42:36.408Z,9.35
2023-01-26T09:45:13.115Z,7.88
2023-01-26T09:47:58.934Z,9.07
2023-01-26T09:50:46.322Z,8.63
2023-01-26T09:53:13.617Z,8.38
2023-01-26T09:55:42.013Z,9.13
2023-01-26T09:58:28.001Z,8.60
2023-01-26T10:00:59.335Z,8.52
2023-01-26T10:03:27.051Z,8.88
2023-01-26T10:05:54.121Z,9.90
2023-01-26T10:08:26.938Z,9.25
2023-01-26T10:10:59.629Z,8.98
2023-01-26T10:13:26.944Z,7.97
2023-01-26T10:16:01.863Z,8.50
2023-01-26T10:18:37.593Z,8.20
2023-01-26T10:21:06.401Z,8.15
2023-01-26T10:23:35.445Z,8.18
2023-01-26T10:26:12.475Z,9.52
2023-01-26T10:28:40.358Z,9.48
2023-01-26T10:31:13.115Z,9.00
2023-01-26T10:33:43.285Z,8.68
2023-01-26T10:36:11.054Z,9.13
2023-01-26T10:38:38.213Z,10.77
2023-01-26T10:41:06.529Z,9.32
2023-01-26T10:43:36.644Z,8.63
2023-01-26T10:46:06.730Z,9.00
2023-01-26T10:48:34.493Z,9.13
2023-01-26T10:51:17.136Z,9.32
2023-01-26T10:53:44.345Z,8.85
2023-01-26T10:56:17.104Z,9.18
2023-01-26T10:58:47.485Z,9.43
2023-01-26T11:01:16.581Z,9.43
2023-01-26T11:03:44.071Z,9.27
2023-01-26T11:06:15.445Z,9.43
2023-01-26T11:08:43.069Z,9.18
2023-01-26T11:11:27.220Z,9.40
2023-01-26T11:14:23.841Z,8.88
2023-01-26T11:16:53.715Z,9.30
2023-01-26T11:19:32.226Z,9.20
2023-01-26T11:22:18.297Z,9.55
2023-01-26T11:24:51.539Z,8.77
2023-01-26T11:27:33.830Z,9.52
2023-01-26T11:30:16.686Z,9.13
2023-01-26T11:33:08.778Z,8.85
2023-01-26T11:36:14.334Z,10.10
2023-01-26T11:38:41.484Z,8.35
2023-01-26T11:41:20.744Z,9.68
2023-01-26T11:44:07.918Z,8.95
2023-01-26T11:46:44.285Z,8.55
2023-01-26T11:49:33.461Z,9.68
2023-01-26T11:52:19.508Z,7.97
2023-01-26T11:54:53.061Z,8.27
2023-01-26T11:57:29.447Z,10.60
2023-01-26T12:00:03.638Z,8.25
2023-01-26T12:02:32.607Z,8.55
2023-01-26T12:05:03.417Z,9.20
2023-01-26T12:07:57.118Z,9.13
2023-01-26T12:10:30.559Z,8.88
2023-01-26T12:13:17.368Z,8.90
2023-01-26T12:15:48.246Z,8.68
2023-01-26T12:18:21.304Z,8.77
2023-01-26T12:20:54.579Z,8.50
2023-01-26T12:23:27.578Z,8.02
2023-01-26T12:26:01.127Z,8.30
2023-01-26T12:28:45.762Z,8.00
2023-01-26T12:31:23.810Z,9.15
2023-01-26T12:33:53.111Z,9.52
2023-01-26T12:36:35.559Z,8.45
2023-01-26T12:39:07.630Z,9.38
2023-01-26T12:41:43.665Z,9.13
2023-01-26T12:44:22.831Z,9.00
2023-01-26T12:46:53.119Z,7.85
2023-01-26T12:49:36.922Z,8.55
2023-01-26T12:52:18.716Z,8.90
2023-01-26T12:54:48.286Z,8.73
2023-01-26T12:57:17.579Z,8.30
2023-01-26T12:59:46.860Z,10.18
2023-01-26T13:02:15.996Z,9.38
2023-01-26T13:04:44.345Z,9.77
2023-01-26T13:07:26.804Z,10.40
2023-01-26T13:10:10.129Z,9.75
2023-01-26T13:12:56.181Z,9.88
2023-01-26T13:15:25.334Z,9.60
2023-01-26T13:17:55.768Z,9.93
2023-01-26T13:20:24.488Z,9.70
2023-01-26T13:22:52.293Z,9.40
2023-01-26T13:25:20.909Z,10.05
2023-01-26T13:27:57.660Z,10.30
2023-01-26T13:30:24.982Z,9.35
2023-01-26T13:32:52.197Z,9.23
2023-01-26T13:35:23.515Z,9.40
2023-01-26T13:37:53.631Z,10.05
2023-01-26T13:40:23.407Z,9.30
2023-01-26T13:42:56.065Z,8.52
2023-01-26T13:45:44.003Z,10.10
2023-01-26T13:48:15.374Z,9.70
2023-01-26T13:50:42.995Z,8.85
2023-01-26T13:53:29.215Z,8.90
2023-01-26T13:55:59.139Z,8.45
2023-01-26T13:58:27.593Z,8.65
2023-01-26T14:01:00.771Z,9.02
2023-01-26T14:03:27.953Z,9.35
2023-01-26T14:05:57.336Z,9.40
2023-01-26T14:08:25.055Z,9.18
2023-01-26T14:10:52.706Z,9.60
2023-01-26T14:13:32.353Z,8.95
2023-01-26T14:16:00.494Z,8.15
2023-01-26T14:18:27.870Z,9.00
2023-01-26T14:21:15.153Z,8.93
2023-01-26T14:23:42.302Z,8.38
2023-01-26T14:26:12.255Z,10.07
2023-01-26T14:28:42.927Z,8.95
2023-01-26T14:31:30.363Z,9.32
2023-01-26T14:33:58.982Z,8.98
2023-01-26T14:36:28.147Z,8.73
2023-01-26T14:38:56.237Z,8.57
2023-01-26T14:41:28.532Z,9.05
2023-01-26T14:43:59.873Z,8.98
2023-01-26T14:46:30.689Z,9.32
2023-01-26T14:49:06.624Z,8.82
2023-01-26T14:51:35.398Z,8.80
2023-01-26T14:54:05.086Z,8.02
2023-01-26T14:56:34.256Z,8.07
2023-01-26T14:59:01.990Z,8.38
2023-01-26T15:01:29.798Z,9.02
2023-01-26T15:03:59.484Z,8.30
2023-01-26T15:06:28.539Z,7.95
2023-01-26T15:08:57.432Z,9.18
2023-01-26T15:11:45.875Z,9.48
2023-01-26T15:14:42.354Z,8.02
2023-01-26T15:17:27.022Z,8.95
2023-01-26T15:19:54.280Z,9.48
2023-01-26T15:22:22.807Z,8.93
2023-01-26T15:25:07.387Z,9.43
2023-01-26T15:27:35.592Z,9.05
2023-01-26T15:30:04.493Z,10.05
2023-01-26T15:32:33.230Z,9.70
2023-01-26T15:35:05.357Z,9.10
2023-01-26T15:37:33.643Z,9.63
2023-01-26T15:40:00.858Z,9.32
2023-01-26T15:42:30.946Z,8.93
2023-01-26T15:44:58.284Z,8.40
2023-01-26T15:47:25.459Z,9.90
2023-01-26T15:49:52.726Z,9.40
2023-01-26T15:52:25.953Z,10.63
2023-01-26T15:54:53.945Z,9.90
2023-01-26T15:57:21.144Z,10.30
2023-01-26T15:59:48.462Z,9.60
2023-01-26T16:02:16.713Z,10.07
2023-01-26T16:04:44.296Z,9.52
2023-01-26T16:07:15.730Z,10.18
2023-01-26T16:09:43.085Z,9.80
2023-01-26T16:12:15.028Z,10.70
2023-01-26T16:14:49.677Z,10.20
2023-01-26T16:17:18.475Z,10.52
2023-01-26T16:19:45.715Z,9.77
2023-01-26T16:22:13.238Z,9.82
2023-01-26T16:24:40.776Z,10.45
2023-01-26T16:27:08.074Z,10.55
2023-01-26T16:29:35.489Z,9.07
2023-01-26T16:32:02.842Z,9.73
2023-01-26T16:34:30.344Z,10.18
2023-01-26T16:36:57.511Z,9.68
2023-01-26T16:39:24.631Z,10.40
2023-01-26T16:41:51.798Z,10.23
2023-01-26T16:44:19.574Z,10.20
2023-01-26T16:46:47.142Z,9.43
2023-01-26T16:49:15.740Z,9.77
2023-01-26T16:51:44.147Z,9.70
2023-01-26T16:54:11.801Z,9.73
2023-01-26T16:56:38.958Z,10.73
2023-01-26T16:59:06.181Z,9.50
2023-01-26T17:01:37.442Z,10.55
2023-01-26T17:04:05.511Z,9.18
2023-01-26T17:06:32.734Z,9.52
2023-01-26T17:08:59.827Z,9.40
2023-01-26T17:11:28.456Z,10.85
2023-01-26T17:13:56.477Z,9.40
2023-01-26T17:16:29.656Z,9.30
2023-01-26T17:18:56.909Z,9.38
2023-01-26T17:21:24.170Z,9.20
2023-01-26T17:23:55.845Z,9.10
2023-01-26T17:26:23.114Z,9.48
2023-01-26T17:28:51.318Z,9.02
2023-01-26T17:31:19.289Z,10.50
2023-01-26T17:33:47.119Z,8.95
2023-01-26T17:36:15.059Z,9.57
2023-01-26T17:38:42.225Z,9.80
2023-01-26T17:41:09.741Z,8.88
2023-01-26T17:43:37.234Z,8.10
2023-01-26T17:46:04.400Z,9.70
2023-01-26T17:48:31.571Z,9.98
2023-01-26T17:50:58.700Z,8.65
2023-01-26T17:53:27.981Z,8.80
2023-01-26T17:55:55.509Z,8.98
2023-01-26T17:58:22.680Z,9.23
2023-01-26T18:00:49.890Z,8.95
2023-01-26T18:03:17.013Z,8.90
2023-01-26T18:05:51.317Z,10.07
2023-01-26T18:08:18.599Z,9.63
2023-01-26T18:10:45.803Z,9.75
2023-01-26T18:13:12.978Z,11.07
2023-01-26T18:15:40.383Z,10.05
2023-01-26T18:18:08.204Z,9.20
2023-01-26T18:20:35.428Z,8.45
2023-01-26T18:23:02.584Z,10.95
2023-01-26T18:25:29.774Z,9.70
2023-01-26T18:27:56.946Z,9.80
2023-01-26T18:30:24.185Z,8.95
2023-01-26T18:32:51.594Z,8.75
2023-01-26T18:35:18.885Z,8.77
2023-01-26T18:37:46.061Z,8.70
2023-01-26T18:40:14.021Z,8.73
2023-01-26T18:42:41.213Z,8.85
2023-01-26T18:45:08.765Z,9.38
2023-01-26T18:47:35.917Z,8.48
2023-01-26T18:50:03.122Z,9.45
2023-01-26T18:52:31.131Z,8.93
2023-01-26T18:54:58.360Z,9.40
2023-01-26T18:57:25.531Z,13.10
2023-01-26T18:59:52.689Z,9.70
2023-01-26T19:02:19.961Z,9.95
2023-01-26T19:04:47.348Z,9.63
2023-01-26T19:07:15.322Z,8.70
2023-01-26T19:09:42.898Z,8.00
2023-01-26T19:12:10.096Z,9.50
2023-01-26T19:14:37.223Z,9.88
2023-01-26T19:17:04.396Z,8.52
2023-01-26T19:19:31.917Z,9.38
2023-01-26T19:21:59.126Z,7.82
2023-01-26T19:24:26.722Z,9.13
2023-01-26T19:26:53.903Z,8.57
2023-01-26T19:29:21.073Z,8.45
2023-01-26T19:31:48.330Z,8.10
2023-01-26T19:34:17.316Z,8.05
2023-01-26T19:36:46.726Z,8.80
2023-01-26T19:39:16.551Z,8.63
2023-01-26T19:41:45.974Z,9.20
2023-01-26T19:44:13.280Z,8.30
2023-01-26T19:46:41.760Z,8.50
2023-01-26T19:49:11.854Z,9.15
2023-01-26T19:51:39.155Z,7.43
2023-01-26T19:54:06.355Z,8.88
2023-01-26T19:56:36.234Z,8.68
2023-01-26T19:59:05.066Z,7.30
2023-01-26T20:01:32.830Z,8.27
2023-01-26T20:04:01.567Z,7.85
2023-01-26T20:06:33.155Z,7.75
2023-01-26T20:09:03.478Z,7.70
2023-01-26T20:11:30.887Z,8.48
2023-01-26T20:14:02.548Z,8.25
2023-01-26T20:16:30.111Z,7.50
2023-01-26T20:18:58.697Z,7.93
2023-01-26T20:21:26.546Z,8.27
2023-01-26T20:23:55.716Z,7.93
2023-01-26T20:26:23.711Z,8.43
2023-01-26T20:28:51.809Z,7.78
2023-01-26T20:31:20.606Z,7.85
2023-01-26T20:33:48.997Z,7.43
2023-01-26T20:36:17.784Z,7.35
2023-01-26T20:38:45.221Z,8.10
2023-01-26T20:41:13.688Z,7.28
2023-01-26T20:43:46.479Z,7.15
2023-01-26T20:46:21.117Z,7.50
2023-01-26T20:48:48.336Z,7.15
2023-01-26T20:51:20.184Z,6.60
2023-01-26T20:53:48.000Z,7.88
2023-01-26T20:56:15.394Z,7.38
2023-01-26T20:58:43.975Z,7.70
2023-01-26T21:01:13.025Z,7.10
2023-01-26T21:03:40.814Z,8.38
2023-01-26T21:06:08.416Z,7.47
2023-01-26T21:08:36.844Z,7.18
2023-01-26T21:11:04.629Z,7.72
2023-01-26T21:13:31.878Z,6.55
2023-01-26T21:15:59.101Z,7.47
2023-01-26T21:18:26.294Z,7.03
2023-01-26T21:20:57.426Z,7.25
2023-01-26T21:23:25.101Z,7.00
2023-01-26T21:25:58.235Z,6.72
2023-01-26T21:28:25.583Z,7.47
2023-01-26T21:31:00.695Z,7.45
2023-01-26T21:33:28.635Z,6.95
2023-01-26T21:35:56.821Z,7.78
2023-01-26T21:38:24.697Z,7.40
2023-01-26T21:41:01.654Z,7.13
2023-01-26T21:43:29.452Z,6.68
2023-01-26T21:45:57.173Z,6.40
2023-01-26T21:48:28.043Z,6.50
2023-01-26T21:51:14.222Z,6.53
2023-01-26T21:53:41.395Z,6.75
2023-01-26T21:56:09.509Z,6.80
2023-01-26T21:58:56.092Z,6.82
2023-01-26T22:01:23.655Z,6.68
2023-01-26T22:03:51.104Z,5.80
2023-01-26T22:06:18.263Z,6.45
2023-01-26T22:08:45.452Z,6.68
2023-01-26T22:11:14.611Z,5.65
2023-01-26T22:13:42.273Z,6.20
2023-01-26T22:16:09.831Z,5.60
2023-01-26T22:18:37.002Z,6.05
2023-01-26T22:21:04.241Z,6.22
2023-01-26T22:23:32.523Z,6.00
2023-01-26T22:25:59.734Z,6.20
2023-01-26T22:28:26.885Z,5.93
2023-01-26T22:31:00.751Z,5.50
2023-01-26T22:33:29.264Z,5.90
2023-01-26T22:36:01.072Z,5.72
2023-01-26T22:38:28.486Z,5.97
2023-01-26T22:40:55.906Z,5.60
2023-01-26T22:43:23.157Z,5.88
2023-01-26T22:45:50.436Z,5.05
2023-01-26T22:48:17.984Z,5.50
2023-01-26T22:50:45.278Z,6.32
2023-01-26T22:53:12.809Z,6.32
2023-01-26T22:55:43.449Z,6.43
2023-01-26T22:58:13.671Z,6.10
2023-01-26T23:00:40.872Z,6.00
2023-01-26T23:03:08.104Z,6.13
2023-01-26T23:05:35.316Z,5.70
2023-01-26T23:08:02.880Z,6.35
2023-01-26T23:10:30.058Z,7.00
2023-01-26T23:12:57.813Z,7.40
2023-01-26T23:15:25.006Z,7.63
2023-01-26T23:17:52.524Z,7.53
2023-01-26T23:20:20.108Z,7.55
2023-01-26T23:22:47.440Z,8.05
2023-01-26T23:25:33.252Z,7.50
2023-01-26T23:28:04.136Z,7.60
2023-01-26T23:30:32.187Z,8.43
2023-01-26T23:32:59.414Z,7.68
2023-01-26T23:35:26.750Z,7.68
2023-01-26T23:37:53.883Z,7.75
2023-01-26T23:40:21.080Z,8.02
2023-01-26T23:43:06.908Z,7.35
2023-01-26T23:45:35.430Z,7.30
2023-01-26T23:48:02.684Z,6.78
2023-01-26T23:50:29.852Z,6.80
2023-01-26T23:52:57.030Z,6.65
2023-01-26T23:55:24.365Z,6.63
2023-01-26T23:57:51.522Z,6.45
